Time;durP1;ratioP1;P1;durP2;ratioP2;P2;SDS_P1;SDS_P2;PMS_P1;PMS_P2;Temp;Humidity;BMP_temperature;BMP_pressure;BME280_temperature;BME280_humidity;BME280_pressure;Samples;Min_cycle;Max_cycle;Signal;HPM_P1;HPM_P2
2021/07/01 00:02:13;;;;;;;47.20;18.57;;;;;;;34.24;nan;100397.13;5052034;28;20487;-42
2021/07/01 00:04:41;;;;;;;55.57;18.83;;;;;;;35.20;nan;100398.91;5055975;28;20812;-45
2021/07/01 00:07:08;;;;;;;74.20;22.67;;;;;;;33.94;nan;100397.09;5054321;28;20479;-42
2021/07/01 00:09:36;;;;;;;57.90;20.00;;;;;;;33.31;nan;100395.63;5055814;28;20484;-44
2021/07/01 00:12:05;;;;;;;57.30;19.97;;;;;;;33.45;nan;100400.09;5054600;28;20487;-44
2021/07/01 00:14:33;;;;;;;99.63;21.43;;;;;;;34.19;nan;100398.25;5055919;28;20459;-44
2021/07/01 00:17:00;;;;;;;58.50;20.40;;;;;;;33.57;nan;100395.88;5054408;28;20475;-47
2021/07/01 00:19:28;;;;;;;69.80;20.77;;;;;;;33.68;nan;100393.41;5055614;28;20929;-46
2021/07/01 00:21:56;;;;;;;61.03;23.87;;;;;;;33.26;nan;100390.53;5052776;28;20479;-44
2021/07/01 00:24:23;;;;;;;75.73;21.27;;;;;;;34.03;nan;100387.69;5055609;28;20455;-43
2021/07/01 00:26:51;;;;;;;56.33;20.97;;;;;;;34.06;nan;100390.19;5050246;28;20507;-43
2021/07/01 00:29:20;;;;;;;62.53;22.13;;;;;;;33.52;nan;100383.63;5055454;28;20476;-44
2021/07/01 00:31:47;;;;;;;50.13;20.40;;;;;;;33.82;nan;100386.34;5054295;28;20937;-42
2021/07/01 00:34:15;;;;;;;64.70;23.37;;;;;;;33.15;nan;100387.66;5055537;28;20459;-44
2021/07/01 00:36:43;;;;;;;59.63;20.77;;;;;;;32.86;nan;100386.56;5053507;28;20481;-46
2021/07/01 00:39:10;;;;;;;59.00;22.03;;;;;;;32.79;nan;100379.00;5054682;28;20475;-43
2021/07/01 00:41:38;;;;;;;68.27;23.10;;;;;;;30.93;nan;100382.56;5054335;28;20471;-43
2021/07/01 00:44:06;;;;;;;68.10;21.17;;;;;;;30.46;nan;100382.16;5055465;28;20483;-43
2021/07/01 00:46:34;;;;;;;94.80;24.03;;;;;;;30.42;nan;100386.75;5043656;28;20477;-44
2021/07/01 00:49:02;;;;;;;60.60;22.33;;;;;;;30.46;nan;100376.81;5068239;28;20490;-42
2021/07/01 00:51:30;;;;;;;52.77;22.40;;;;;;;29.29;nan;100384.66;5048859;28;20469;-43
2021/07/01 00:53:57;;;;;;;52.20;20.70;;;;;;;29.98;nan;100379.88;5055352;28;20459;-42
2021/07/01 00:56:25;;;;;;;54.77;21.00;;;;;;;29.62;nan;100383.25;5053796;28;20469;-44
2021/07/01 00:58:54;;;;;;;67.73;22.63;;;;;;;29.81;nan;100388.63;5055115;28;20462;-42
2021/07/01 01:01:24;;;;;;;65.17;21.20;;;;;;;29.77;nan;100381.72;5048154;28;20462;-44
2021/07/01 01:03:53;;;;;;;90.77;21.53;;;;;;;29.80;nan;100378.94;5054987;28;20491;-45
2021/07/01 01:06:20;;;;;;;60.43;22.83;;;;;;;30.10;nan;100382.94;5049399;28;20459;-44
2021/07/01 01:08:48;;;;;;;62.77;21.93;;;;;;;30.24;nan;100374.31;5054929;28;20487;-44
2021/07/01 01:11:24;;;;;;;54.73;20.63;;;;;;;29.70;nan;100377.59;5044324;28;20469;-43
2021/07/01 01:13:53;;;;;;;53.10;19.73;;;;;;;29.44;nan;100377.81;5069159;28;20482;-45
2021/07/01 01:16:23;;;;;;;54.20;20.70;;;;;;;29.75;nan;100378.25;5044679;28;20462;-42
2021/07/01 01:18:51;;;;;;;66.10;21.47;;;;;;;29.56;nan;100370.25;5068782;28;20479;-42
2021/07/01 01:21:23;;;;;;;58.87;20.80;;;;;;;29.62;nan;100377.94;5053829;28;20466;-42
2021/07/01 01:23:53;;;;;;;151.67;24.33;;;;;;;29.72;nan;100375.72;5054900;28;20503;-46
2021/07/01 01:26:20;;;;;;;61.03;21.13;;;;;;;30.07;nan;100377.72;5053547;28;20460;-45
2021/07/01 01:28:48;;;;;;;60.53;22.40;;;;;;;30.12;nan;100367.75;5054091;28;20947;-42
2021/07/01 01:31:15;;;;;;;70.50;22.07;;;;;;;29.73;nan;100370.34;5053630;28;20456;-42
2021/07/01 01:33:44;;;;;;;186.70;26.43;;;;;;;29.34;nan;100363.19;5054999;28;20483;-44
2021/07/01 01:36:12;;;;;;;48.87;20.67;;;;;;;28.97;nan;100357.66;5054655;28;20471;-44
2021/07/01 01:38:40;;;;;;;46.63;20.20;;;;;;;29.27;nan;100359.06;5054443;28;20463;-43
2021/07/01 01:41:09;;;;;;;71.37;23.27;;;;;;;29.86;nan;100362.69;5054791;28;20505;-43
2021/07/01 01:43:36;;;;;;;60.37;20.67;;;;;;;29.45;nan;100355.63;5053453;28;20487;-44
2021/07/01 01:46:04;;;;;;;52.23;20.57;;;;;;;29.18;nan;100355.91;5054515;28;20884;-43
2021/07/01 01:48:32;;;;;;;59.27;20.70;;;;;;;29.20;nan;100356.69;5053289;28;20542;-43
2021/07/01 01:50:59;;;;;;;52.50;21.17;;;;;;;28.56;nan;100359.25;5054962;28;20487;-43
2021/07/01 01:53:27;;;;;;;42.90;19.00;;;;;;;28.29;nan;100353.25;5057347;28;20476;-44
2021/07/01 01:55:54;;;;;;;64.57;21.00;;;;;;;29.05;nan;100350.22;5058124;28;20470;-44
2021/07/01 01:58:23;;;;;;;60.53;21.93;;;;;;;29.45;nan;100352.97;5045746;28;20490;-42
2021/07/01 02:00:51;;;;;;;48.57;20.63;;;;;;;29.33;nan;100348.19;5058094;28;20487;-42
2021/07/01 02:03:18;;;;;;;69.73;21.70;;;;;;;29.26;nan;100349.38;5056799;28;20486;-44
2021/07/01 02:05:46;;;;;;;48.07;19.50;;;;;;;28.91;nan;100347.31;5057829;28;20459;-42
2021/07/01 02:08:13;;;;;;;48.77;19.03;;;;;;;29.19;nan;100347.00;5056682;28;20483;-45
2021/07/01 02:10:41;;;;;;;61.40;20.67;;;;;;;29.69;nan;100344.00;5058248;28;20483;-42
2021/07/01 02:13:11;;;;;;;52.30;20.57;;;;;;;29.17;nan;100343.53;5056613;28;20490;-44
2021/07/01 02:15:40;;;;;;;68.40;21.37;;;;;;;29.39;nan;100342.59;5057785;28;20546;-42
2021/07/01 02:18:08;;;;;;;101.93;20.90;;;;;;;29.02;nan;100344.19;5056622;28;20537;-44
2021/07/01 02:20:36;;;;;;;50.03;20.00;;;;;;;29.63;nan;100353.13;5057819;28;20867;-43
2021/07/01 02:23:04;;;;;;;55.73;19.50;;;;;;;29.55;nan;100349.91;5056367;28;20486;-42
2021/07/01 02:25:32;;;;;;;60.13;20.53;;;;;;;29.37;nan;100355.06;5057689;28;20455;-48
2021/07/01 02:27:59;;;;;;;44.43;18.40;;;;;;;28.95;nan;100355.06;5056021;28;20481;-42
2021/07/01 02:30:27;;;;;;;55.63;19.07;;;;;;;29.64;nan;100345.06;5057152;28;20482;-42
2021/07/01 02:32:56;;;;;;;62.60;19.40;;;;;;;29.87;nan;100353.78;5056200;28;20486;-42
2021/07/01 02:35:32;;;;;;;54.73;20.83;;;;;;;29.84;nan;100353.06;5057334;28;20896;-43
2021/07/01 02:37:59;;;;;;;56.30;21.03;;;;;;;30.05;nan;100348.56;5051382;28;20471;-43
2021/07/01 02:40:27;;;;;;;57.97;20.30;;;;;;;29.28;nan;100351.06;5057593;28;20488;-44
2021/07/01 02:42:54;;;;;;;40.40;19.57;;;;;;;29.10;nan;100348.25;5056158;28;20496;-42
2021/07/01 02:45:22;;;;;;;70.33;21.80;;;;;;;29.45;nan;100347.66;5056957;28;20482;-43
2021/07/01 02:47:50;;;;;;;61.07;21.07;;;;;;;29.32;nan;100346.47;5055919;28;20779;-43
2021/07/01 02:50:19;;;;;;;60.97;21.87;;;;;;;30.07;nan;100351.13;5057470;28;20535;-43
2021/07/01 02:52:46;;;;;;;58.10;22.27;;;;;;;29.48;nan;100344.88;5053650;28;20495;-43
2021/07/01 02:55:14;;;;;;;61.90;22.80;;;;;;;29.73;nan;100346.44;5057282;28;20456;-44
2021/07/01 02:57:41;;;;;;;72.23;22.80;;;;;;;29.53;nan;100347.34;5055784;28;20770;-43
2021/07/01 03:00:13;;;;;;;48.50;23.00;;;;;;;29.81;nan;100353.19;5057101;28;20487;-43
2021/07/01 03:02:41;;;;;;;60.77;22.80;;;;;;;29.72;nan;100352.69;5056083;28;20478;-43
2021/07/01 03:05:09;;;;;;;65.97;25.10;;;;;;;30.21;nan;100347.84;5056832;28;20483;-44
2021/07/01 03:07:38;;;;;;;64.23;23.50;;;;;;;29.60;nan;100350.59;5056756;28;20494;-43
2021/07/01 03:10:07;;;;;;;59.93;23.37;;;;;;;29.42;nan;100349.59;5061565;28;20488;-45
2021/07/01 03:12:34;;;;;;;50.70;21.30;;;;;;;28.94;nan;100352.47;5055718;28;20498;-43
2021/07/01 03:15:02;;;;;;;42.20;18.87;;;;;;;29.33;nan;100349.03;5057012;28;20455;-44
2021/07/01 03:17:30;;;;;;;54.87;20.67;;;;;;;29.71;nan;100348.31;5055589;28;20490;-42
2021/07/01 03:19:57;;;;;;;42.20;19.00;;;;;;;29.76;nan;100353.41;5056629;28;20925;-47
2021/07/01 03:22:25;;;;;;;36.93;17.40;;;;;;;29.69;nan;100350.19;5055189;28;20481;-46
2021/07/01 03:24:54;;;;;;;41.37;18.30;;;;;;;29.99;nan;100347.03;5056498;28;20505;-43
2021/07/01 03:27:21;;;;;;;29.87;14.80;;;;;;;29.46;nan;100343.19;5055119;28;20490;-45
2021/07/01 03:29:49;;;;;;;34.43;15.90;;;;;;;29.77;nan;100348.03;5056489;28;20476;-43
2021/07/01 03:32:17;;;;;;;26.80;13.20;;;;;;;29.00;nan;100352.22;5055391;28;20510;-44
2021/07/01 03:34:45;;;;;;;38.50;15.27;;;;;;;29.31;nan;100350.91;5056649;28;20466;-43
2021/07/01 03:37:12;;;;;;;30.60;14.57;;;;;;;29.29;nan;100343.94;5054632;28;20479;-43
2021/07/01 03:39:40;;;;;;;30.23;14.60;;;;;;;29.77;nan;100348.03;5056290;28;20558;-44
2021/07/01 03:42:10;;;;;;;32.27;15.57;;;;;;;29.67;nan;100341.41;5055149;28;20482;-43
2021/07/01 03:44:38;;;;;;;31.80;14.60;;;;;;;29.27;nan;100344.00;5056235;28;20973;-44
2021/07/01 03:47:06;;;;;;;31.90;14.87;;;;;;;29.65;nan;100344.13;5054684;28;20494;-43
2021/07/01 03:49:34;;;;;;;32.43;15.07;;;;;;;30.03;nan;100345.09;5056162;28;20804;-42
2021/07/01 03:52:01;;;;;;;29.47;15.77;;;;;;;29.42;nan;100347.78;5051404;28;20490;-43
2021/07/01 03:54:29;;;;;;;37.83;16.70;;;;;;;29.73;nan;100342.94;5065757;28;20452;-44
2021/07/01 03:56:57;;;;;;;32.03;15.73;;;;;;;29.92;nan;100342.94;5054453;28;20483;-43
2021/07/01 03:59:26;;;;;;;38.47;16.67;;;;;;;30.12;nan;100346.50;5056112;28;20482;-42
2021/07/01 04:01:53;;;;;;;36.00;16.17;;;;;;;29.55;nan;100336.63;5055267;28;20484;-42
2021/07/01 04:04:21;;;;;;;31.20;14.77;;;;;;;29.44;nan;100337.09;5056015;28;20482;-45
2021/07/01 04:06:49;;;;;;;24.53;12.70;;;;;;;28.80;nan;100337.09;5048559;28;20498;-44
2021/07/01 04:09:16;;;;;;;26.13;13.33;;;;;;;29.01;nan;100340.66;5066816;28;20479;-45
2021/07/01 04:11:44;;;;;;;27.83;13.47;;;;;;;28.86;nan;100343.97;5048871;28;20482;-44
2021/07/01 04:14:12;;;;;;;25.70;13.60;;;;;;;28.81;nan;100342.34;5067088;28;20778;-43
2021/07/01 04:16:41;;;;;;;27.03;13.30;;;;;;;28.98;nan;100346.97;5047759;28;21006;-43
2021/07/01 04:19:09;;;;;;;24.97;11.83;;;;;;;28.80;nan;100350.34;5067592;28;20478;-41
2021/07/01 04:21:36;;;;;;;22.67;12.00;;;;;;;29.48;nan;100347.53;5047968;28;20485;-43
2021/07/01 04:24:04;;;;;;;22.50;11.50;;;;;;;29.51;nan;100342.09;5068447;28;20777;-44
2021/07/01 04:26:32;;;;;;;21.50;10.47;;;;;;;28.86;nan;100334.19;5049041;28;20498;-43
2021/07/01 04:29:00;;;;;;;27.97;12.10;;;;;;;29.43;nan;100346.84;5055449;28;20466;-44
2021/07/01 04:31:27;;;;;;;23.17;11.87;;;;;;;29.90;nan;100348.31;5046697;28;20463;-43
2021/07/01 04:33:56;;;;;;;28.17;11.57;;;;;;;29.67;nan;100351.19;5069177;28;20517;-44
2021/07/01 04:36:24;;;;;;;20.40;10.90;;;;;;;29.43;nan;100348.66;5045678;28;20478;-44
2021/07/01 04:38:51;;;;;;;23.07;11.47;;;;;;;29.74;nan;100352.63;5069637;28;20491;-44
2021/07/01 04:41:20;;;;;;;20.57;10.53;;;;;;;30.12;nan;100346.50;5054357;28;20452;-42
2021/07/01 04:43:48;;;;;;;24.40;10.87;;;;;;;30.33;nan;100347.28;5055267;28;20491;-42
2021/07/01 04:46:16;;;;;;;17.40;9.67;;;;;;;29.05;nan;100350.22;5047003;28;20475;-43
2021/07/01 04:48:44;;;;;;;17.43;10.03;;;;;;;28.92;nan;100355.19;5055366;28;20493;-42
2021/07/01 04:51:22;;;;;;;17.03;9.30;;;;;;;29.48;nan;100360.81;5055141;28;20941;-43
2021/07/01 04:53:50;;;;;;;17.10;9.23;;;;;;;29.65;nan;100364.53;5054870;28;20460;-43
2021/07/01 04:56:17;;;;;;;18.83;9.93;;;;;;;29.33;nan;100364.13;5053758;28;20896;-44
2021/07/01 04:58:45;;;;;;;17.30;9.23;;;;;;;29.65;nan;100353.91;5054980;28;20489;-42
2021/07/01 05:01:21;;;;;;;19.13;9.30;;;;;;;29.86;nan;100361.81;5054820;28;20525;-45
2021/07/01 05:03:49;;;;;;;24.63;9.00;;;;;;;29.70;nan;100351.91;5054887;28;20549;-45
2021/07/01 05:06:18;;;;;;;17.87;8.93;;;;;;;29.83;nan;100356.66;5053693;28;20493;-44
2021/07/01 05:08:45;;;;;;;16.83;8.80;;;;;;;29.63;nan;100359.28;5055013;28;20495;-42
2021/07/01 05:11:19;;;;;;;17.20;8.87;;;;;;;29.55;nan;100355.22;5052939;28;20476;-47
2021/07/01 05:13:46;;;;;;;16.90;8.80;;;;;;;29.87;nan;100363.53;5055032;28;20481;-44
2021/07/01 05:16:14;;;;;;;17.57;8.83;;;;;;;30.13;nan;100361.50;5053800;28;20452;-45
2021/07/01 05:18:41;;;;;;;15.70;9.33;;;;;;;30.24;nan;100361.88;5054643;28;20490;-45
2021/07/01 05:21:09;;;;;;;18.70;11.10;;;;;;;30.02;nan;100362.84;5054409;28;20789;-45
2021/07/01 05:23:38;;;;;;;22.87;11.00;;;;;;;30.30;nan;100364.25;5053487;28;20480;-44
2021/07/01 05:26:05;;;;;;;13.63;8.43;;;;;;;30.31;nan;100365.97;5054914;28;20478;-46
2021/07/01 05:28:33;;;;;;;20.13;9.47;;;;;;;30.03;nan;100361.91;5058460;28;20490;-43
2021/07/01 05:31:00;;;;;;;15.17;8.00;;;;;;;30.12;nan;100360.66;5058477;28;20483;-44
2021/07/01 05:33:28;;;;;;;17.53;9.00;;;;;;;29.92;nan;100367.75;5057284;28;20536;-45
2021/07/01 05:35:57;;;;;;;33.97;21.10;;;;;;;30.13;nan;100369.50;5058281;28;20548;-44
2021/07/01 05:38:25;;;;;;;13.23;6.30;;;;;;;30.59;nan;100362.00;5062697;28;20482;-45
2021/07/01 05:40:54;;;;;;;18.37;7.83;;;;;;;30.75;nan;100366.56;5058539;28;20486;-44
2021/07/01 05:43:21;;;;;;;7.53;4.57;;;;;;;30.82;nan;100365.31;5057048;28;20479;-46
2021/07/01 05:45:49;;;;;;;9.93;5.50;;;;;;;30.64;nan;100364.41;5058142;28;20483;-43
2021/07/01 05:48:18;;;;;;;9.70;5.87;;;;;;;30.21;nan;100362.03;5056875;28;20502;-43
2021/07/01 05:50:50;;;;;;;11.57;6.00;;;;;;;30.18;nan;100371.00;5058305;28;20515;-42
2021/07/01 05:53:24;;;;;;;8.17;5.63;;;;;;;30.76;nan;100364.78;5056915;28;20481;-43
2021/07/01 05:55:53;;;;;;;10.87;6.67;;;;;;;30.16;nan;100358.72;5058102;28;20455;-43
2021/07/01 05:58:21;;;;;;;8.73;6.10;;;;;;;30.14;nan;100363.25;5057058;28;20476;-43
2021/07/01 06:00:49;;;;;;;6.97;4.60;;;;;;;30.59;nan;100364.66;5058231;28;20481;-46
2021/07/01 06:03:17;;;;;;;9.60;6.20;;;;;;;30.15;nan;100362.31;5056787;28;20484;-45
2021/07/01 06:05:46;;;;;;;12.50;7.00;;;;;;;30.19;nan;100363.88;5058061;28;20490;-45
2021/07/01 06:08:14;;;;;;;5.50;3.73;;;;;;;30.35;nan;100368.50;5056969;28;20501;-45
2021/07/01 06:10:43;;;;;;;12.00;6.57;;;;;;;30.42;nan;100365.47;5057996;28;20490;-48
2021/07/01 06:13:18;;;;;;;10.60;5.43;;;;;;;30.17;nan;100376.41;5051926;28;20597;-43
2021/07/01 06:15:46;;;;;;;17.50;7.87;;;;;;;30.15;nan;100365.81;5057681;28;20451;-44
2021/07/01 06:18:15;;;;;;;8.43;4.73;;;;;;;30.24;nan;100372.50;5056592;28;20494;-46
2021/07/01 06:20:42;;;;;;;9.40;5.10;;;;;;;30.25;nan;100379.56;5058008;28;20479;-44
2021/07/01 06:23:10;;;;;;;9.37;5.97;;;;;;;30.17;nan;100371.06;5056443;28;20490;-44
2021/07/01 06:25:38;;;;;;;17.40;7.13;;;;;;;30.43;nan;100371.63;5057407;28;20945;-44
2021/07/01 06:28:06;;;;;;;18.27;6.93;;;;;;;30.59;nan;100383.28;5061729;28;20490;-43
2021/07/01 06:30:37;;;;;;;15.53;9.17;;;;;;;30.87;nan;100382.88;5058139;28;20486;-45
2021/07/01 06:33:06;;;;;;;41.47;6.57;;;;;;;30.65;nan;100381.25;5052007;28;20483;-44
2021/07/01 06:35:33;;;;;;;17.70;10.87;;;;;;;30.26;nan;100381.31;5057157;28;20898;-45
2021/07/01 06:38:03;;;;;;;11.97;6.00;;;;;;;30.54;nan;100379.09;5055786;28;20790;-43
2021/07/01 06:40:32;;;;;;;9.90;6.03;;;;;;;30.70;nan;100381.91;5057546;28;20481;-46
2021/07/01 06:43:00;;;;;;;7.50;4.53;;;;;;;31.17;nan;100383.13;5060124;28;20502;-43
2021/07/01 06:45:28;;;;;;;8.77;5.50;;;;;;;30.79;nan;100384.13;5058865;28;20509;-45
2021/07/01 06:47:57;;;;;;;9.77;5.63;;;;;;;31.35;nan;100388.50;5060097;28;20504;-44
2021/07/01 06:50:27;;;;;;;9.67;6.53;;;;;;;31.12;nan;100386.03;5059361;28;20485;-47
2021/07/01 06:52:56;;;;;;;9.07;5.30;;;;;;;30.97;nan;100382.34;5056124;28;20489;-44
2021/07/01 06:55:25;;;;;;;24.37;20.10;;;;;;;30.91;nan;100392.44;5056844;28;20470;-44
2021/07/01 06:57:54;;;;;;;6.90;4.20;;;;;;;31.10;nan;100393.25;5055973;28;20574;-43
2021/07/01 07:00:22;;;;;;;36.17;22.00;;;;;;;31.08;nan;100395.13;5057248;28;20481;-43
2021/07/01 07:02:52;;;;;;;23.73;14.23;;;;;;;30.62;nan;100386.72;5055880;28;20491;-45
2021/07/01 07:05:22;;;;;;;49.20;31.87;;;;;;;30.44;nan;100397.31;5056745;28;20468;-44
2021/07/01 07:07:50;;;;;;;25.60;17.27;;;;;;;30.83;nan;100395.47;5047137;28;20481;-45
2021/07/01 07:10:20;;;;;;;24.00;14.63;;;;;;;30.82;nan;100399.94;5057193;28;20478;-43
2021/07/01 07:12:49;;;;;;;29.80;16.57;;;;;;;30.69;nan;100398.81;5055699;28;20495;-43
2021/07/01 07:15:23;;;;;;;6.60;3.60;;;;;;;31.11;nan;100399.41;5056885;28;20462;-42
2021/07/01 07:17:51;;;;;;;33.63;17.87;;;;;;;31.15;nan;100401.00;5055382;28;20502;-44
2021/07/01 07:20:23;;;;;;;37.73;22.50;;;;;;;31.27;nan;100407.53;5056673;28;20478;-43
2021/07/01 07:22:52;;;;;;;94.37;52.60;;;;;;;31.14;nan;100399.28;5055557;28;20481;-43
2021/07/01 07:25:21;;;;;;;7.77;5.90;;;;;;;31.53;nan;100405.34;5056768;28;20472;-44
2021/07/01 07:27:54;;;;;;;39.13;23.43;;;;;;;31.70;nan;100400.91;5054969;28;20580;-43
2021/07/01 07:30:23;;;;;;;6.53;4.43;;;;;;;32.11;nan;100400.53;5056382;28;20954;-45
2021/07/01 07:32:51;;;;;;;14.60;9.67;;;;;;;31.86;nan;100401.84;5055051;28;20943;-44
2021/07/01 07:35:19;;;;;;;23.03;14.27;;;;;;;31.84;nan;100403.75;5056511;28;20472;-43
2021/07/01 07:37:49;;;;;;;18.77;9.27;;;;;;;32.13;nan;100403.97;5055152;28;20940;-43
2021/07/01 07:40:17;;;;;;;40.40;19.63;;;;;;;31.95;nan;100405.84;5056483;28;20470;-43
2021/07/01 07:42:45;;;;;;;6.90;4.80;;;;;;;32.16;nan;100403.81;5055211;28;20513;-43
2021/07/01 07:45:15;;;;;;;15.37;5.80;;;;;;;31.37;nan;100408.78;5056170;28;20829;-43
2021/07/01 07:47:42;;;;;;;5.70;3.93;;;;;;;31.57;nan;100412.22;5056026;28;20486;-44
2021/07/01 07:50:11;;;;;;;12.67;9.27;;;;;;;31.10;nan;100411.88;5059264;28;20481;-42
2021/07/01 07:52:45;;;;;;;6.70;4.90;;;;;;;31.13;nan;100413.53;5054676;28;20477;-43
2021/07/01 07:55:16;;;;;;;7.93;5.93;;;;;;;31.59;nan;100415.69;5056036;28;20466;-47
2021/07/01 07:57:45;;;;;;;8.43;5.00;;;;;;;31.73;nan;100411.44;5054451;28;20478;-43
2021/07/01 08:00:13;;;;;;;8.70;6.63;;;;;;;31.05;nan;100410.38;5056119;28;20491;-42
2021/07/01 08:02:46;;;;;;;8.23;6.27;;;;;;;31.47;nan;100405.66;5054687;28;20496;-45
2021/07/01 08:05:15;;;;;;;15.97;6.50;;;;;;;31.62;nan;100410.19;5055849;28;20462;-47
2021/07/01 08:07:42;;;;;;;12.90;10.33;;;;;;;30.70;nan;100401.41;5054077;28;20486;-42
2021/07/01 08:10:12;;;;;;;11.97;8.90;;;;;;;31.20;nan;100409.63;5055880;28;20486;-45
2021/07/01 08:12:43;;;;;;;7.73;6.07;;;;;;;31.86;nan;100415.19;5054655;28;20472;-45
2021/07/01 08:15:12;;;;;;;12.00;8.23;;;;;;;31.50;nan;100413.47;5055888;28;20534;-43
2021/07/01 08:17:42;;;;;;;9.40;7.20;;;;;;;31.65;nan;100420.69;5056095;28;20478;-44
2021/07/01 08:20:11;;;;;;;10.40;7.67;;;;;;;31.98;nan;100421.66;5059739;28;20485;-44
2021/07/01 08:22:40;;;;;;;15.77;11.10;;;;;;;30.92;nan;100413.66;5055679;28;20525;-44
2021/07/01 08:25:09;;;;;;;10.80;8.27;;;;;;;31.11;nan;100416.28;5057541;28;20765;-46
2021/07/01 08:27:37;;;;;;;10.87;8.13;;;;;;;31.80;nan;100410.16;5054223;28;20487;-42
2021/07/01 08:30:07;;;;;;;12.93;7.63;;;;;;;31.82;nan;100420.75;5055506;28;20486;-45
2021/07/01 08:32:35;;;;;;;12.80;8.07;;;;;;;31.92;nan;100416.66;5054317;28;20484;-43
2021/07/01 08:35:04;;;;;;;10.30;7.70;;;;;;;31.92;nan;100421.97;5060112;28;20471;-45
2021/07/01 08:37:33;;;;;;;11.17;8.37;;;;;;;31.50;nan;100417.03;5053811;28;20485;-45
2021/07/01 08:40:01;;;;;;;10.63;8.30;;;;;;;31.89;nan;100428.34;5055625;28;20486;-45
2021/07/01 08:42:32;;;;;;;12.30;8.47;;;;;;;31.58;nan;100423.75;5054184;28;20476;-46
2021/07/01 08:45:04;;;;;;;12.13;8.40;;;;;;;31.57;nan;100428.22;5055462;28;20459;-42
2021/07/01 08:47:35;;;;;;;12.50;9.53;;;;;;;31.97;nan;100422.59;5053744;28;20492;-44
2021/07/01 08:50:06;;;;;;;15.53;10.87;;;;;;;32.12;nan;100428.03;5055222;28;20486;-45
2021/07/01 08:52:35;;;;;;;14.20;9.33;;;;;;;32.33;nan;100431.34;5054021;28;20930;-47
2021/07/01 08:55:19;;;;;;;15.53;9.73;;;;;;;32.30;nan;100432.38;5055233;28;20880;-43
2021/07/01 08:57:49;;;;;;;13.67;9.40;;;;;;;32.62;nan;100433.38;5053888;28;20479;-45
2021/07/01 09:00:17;;;;;;;14.17;9.87;;;;;;;31.81;nan;100430.53;5055937;28;20786;-44
2021/07/01 09:03:02;;;;;;;11.53;8.93;;;;;;;32.08;nan;100427.34;5058191;28;20478;-46
2021/07/01 09:05:31;;;;;;;15.37;10.63;;;;;;;32.27;nan;100427.22;5059043;28;20468;-44
2021/07/01 09:08:00;;;;;;;18.40;12.30;;;;;;;32.17;nan;100426.88;5058130;28;20767;-45
2021/07/01 09:10:30;;;;;;;19.70;13.57;;;;;;;32.42;nan;100420.22;5059324;28;20483;-44
2021/07/01 09:12:59;;;;;;;34.27;22.33;;;;;;;32.50;nan;100424.25;5057953;28;20484;-43
2021/07/01 09:15:28;;;;;;;46.17;33.70;;;;;;;32.67;nan;100424.16;5058744;28;20954;-43
2021/07/01 09:17:58;;;;;;;35.57;22.90;;;;;;;32.37;nan;100427.56;5056912;28;20484;-42
2021/07/01 09:20:33;;;;;;;35.33;24.07;;;;;;;32.48;nan;100428.81;5058812;28;20482;-45
2021/07/01 09:23:01;;;;;;;24.50;16.13;;;;;;;32.10;nan;100433.50;5057574;28;20773;-44
2021/07/01 09:25:29;;;;;;;159.67;121.10;;;;;;;32.05;nan;100433.72;5058556;28;20465;-44
2021/07/01 09:27:57;;;;;;;22.17;16.40;;;;;;;31.89;nan;100441.69;5057308;28;20575;-45
2021/07/01 09:30:27;;;;;;;11.00;9.27;;;;;;;33.06;nan;100437.16;5056702;28;20978;-44
2021/07/01 09:32:57;;;;;;;18.20;10.10;;;;;;;32.43;nan;100437.94;5057271;28;20893;-44
2021/07/01 09:35:28;;;;;;;14.00;9.20;;;;;;;32.07;nan;100444.31;5058201;28;20466;-42
2021/07/01 09:37:56;;;;;;;17.20;11.17;;;;;;;32.16;nan;100453.63;5057439;28;20476;-43
2021/07/01 09:40:24;;;;;;;12.13;8.97;;;;;;;32.61;nan;100451.22;5058829;28;20481;-44
2021/07/01 09:42:53;;;;;;;14.27;10.70;;;;;;;32.06;nan;100447.94;5057430;28;20490;-44
2021/07/01 09:45:22;;;;;;;12.10;8.70;;;;;;;32.17;nan;100453.53;5058372;28;20502;-45
2021/07/01 09:47:53;;;;;;;12.50;8.30;;;;;;;32.76;nan;100443.28;5057323;28;20481;-43
2021/07/01 09:50:24;;;;;;;13.00;9.37;;;;;;;32.38;nan;100447.97;5058403;28;20481;-42
2021/07/01 09:52:54;;;;;;;14.93;9.70;;;;;;;32.65;nan;100442.06;5057318;28;20473;-43
2021/07/01 09:55:26;;;;;;;13.20;9.40;;;;;;;32.44;nan;100454.78;5058421;28;20461;-44
2021/07/01 09:57:55;;;;;;;15.63;8.97;;;;;;;33.05;nan;100452.28;5057017;28;20485;-44
2021/07/01 10:00:27;;;;;;;15.33;11.43;;;;;;;33.07;nan;100452.22;5058370;28;20805;-46
2021/07/01 10:03:03;;;;;;;12.23;10.10;;;;;;;32.56;nan;100447.94;5049809;28;20480;-43
2021/07/01 10:05:32;;;;;;;12.37;9.40;;;;;;;32.35;nan;100455.28;5058064;28;20465;-43
2021/07/01 10:08:00;;;;;;;13.20;8.97;;;;;;;32.67;nan;100450.88;5059817;28;20493;-43
2021/07/01 10:10:27;;;;;;;14.07;9.40;;;;;;;32.94;nan;100452.91;5059768;28;20489;-44
2021/07/01 10:12:56;;;;;;;19.20;10.73;;;;;;;32.96;nan;100450.19;5055773;28;20573;-44
2021/07/01 10:15:29;;;;;;;13.30;9.13;;;;;;;33.35;nan;100450.59;5057556;28;20467;-42
2021/07/01 10:18:06;;;;;;;12.97;8.30;;;;;;;33.37;nan;100446.03;5051646;28;20490;-43
2021/07/01 10:20:52;;;;;;;14.63;9.27;;;;;;;33.00;nan;100460.59;5057870;28;20517;-45
2021/07/01 10:23:21;;;;;;;8.83;6.57;;;;;;;32.62;nan;100450.25;5057483;28;20881;-45
2021/07/01 10:25:51;;;;;;;11.20;7.77;;;;;;;33.04;nan;100455.06;5057135;28;20455;-47
2021/07/01 10:28:20;;;;;;;12.37;8.40;;;;;;;32.97;nan;100458.06;5056451;28;20488;-43
2021/07/01 10:30:59;;;;;;;10.90;8.20;;;;;;;33.02;nan;100457.84;5057798;28;20489;-43
2021/07/01 10:33:28;;;;;;;11.27;8.57;;;;;;;33.15;nan;100460.63;5056239;28;20483;-47
2021/07/01 10:36:00;;;;;;;10.50;7.97;;;;;;;33.08;nan;100456.59;5057259;28;20470;-44
2021/07/01 10:38:28;;;;;;;10.00;7.90;;;;;;;33.15;nan;100455.28;5055781;28;20474;-43
2021/07/01 10:40:58;;;;;;;13.03;8.83;;;;;;;33.66;nan;100459.47;5057517;28;20486;-45
2021/07/01 10:43:39;;;;;;;10.53;8.30;;;;;;;33.20;nan;100455.00;5056143;28;20494;-45
2021/07/01 10:46:06;;;;;;;16.53;8.50;;;;;;;33.19;nan;100451.50;5057208;28;20469;-48
2021/07/01 10:48:34;;;;;;;10.00;7.50;;;;;;;32.86;nan;100461.34;5061741;28;20489;-44
2021/07/01 10:51:15;;;;;;;10.63;7.80;;;;;;;33.08;nan;100459.28;5057183;28;20489;-47
2021/07/01 10:53:46;;;;;;;20.83;14.03;;;;;;;33.94;nan;100457.78;5057079;28;20474;-45
2021/07/01 10:56:39;;;;;;;8.60;6.10;;;;;;;33.18;nan;100455.13;5056005;28;20462;-42
2021/07/01 10:59:15;;;;;;;9.30;7.40;;;;;;;33.91;nan;100447.25;5057093;28;20474;-43
2021/07/01 11:01:44;;;;;;;9.27;6.60;;;;;;;33.91;nan;100457.97;5044780;28;20477;-43
2021/07/01 11:04:14;;;;;;;11.67;7.67;;;;;;;34.03;nan;100459.91;5057410;28;20490;-43
2021/07/01 11:06:44;;;;;;;10.97;6.23;;;;;;;33.16;nan;100457.00;5047181;28;20467;-45
2021/07/01 11:09:14;;;;;;;10.50;6.33;;;;;;;34.37;nan;100464.97;5057036;28;20565;-44
2021/07/01 11:11:43;;;;;;;9.47;6.53;;;;;;;33.93;nan;100462.28;5055653;28;20471;-43
2021/07/01 11:14:12;;;;;;;22.60;16.40;;;;;;;34.27;nan;100461.13;5057221;28;20459;-43
2021/07/01 11:16:41;;;;;;;12.87;8.67;;;;;;;34.61;nan;100465.22;5055417;28;20474;-45
2021/07/01 11:19:10;;;;;;;7.50;6.57;;;;;;;34.02;nan;100463.50;5056875;28;20475;-45
2021/07/01 11:21:41;;;;;;;10.20;6.67;;;;;;;34.94;nan;100463.13;5045938;28;20940;-43
2021/07/01 11:24:16;;;;;;;11.13;8.37;;;;;;;34.41;nan;100458.47;5056487;28;20456;-42
2021/07/01 11:26:44;;;;;;;21.93;15.97;;;;;;;35.01;nan;100468.94;5055140;28;20471;-42
2021/07/01 11:29:12;;;;;;;18.50;11.73;;;;;;;34.74;nan;100456.38;5056487;28;20494;-45
2021/07/01 11:31:43;;;;;;;12.97;10.53;;;;;;;35.45;nan;100468.72;5054782;28;20472;-47
2021/07/01 11:34:12;;;;;;;10.77;7.70;;;;;;;35.33;nan;100463.28;5056663;28;20463;-44
2021/07/01 11:36:41;;;;;;;6.53;5.40;;;;;;;35.41;nan;100462.72;5054766;28;20471;-43
2021/07/01 11:39:10;;;;;;;9.30;6.30;;;;;;;35.81;nan;100457.31;5056605;28;20529;-48